Marquand, Missouri
Current Conditions -  °F | °C
As of 3:55 AM on Monday 22 Dec 2014 (Local Time) from KFAM Reporting Station
Overcast Overcast  
Wind Chill:   Ceiling: 2600
Heat Index:   Visibility: 10mi
Dew Point:   Wind: 7mph
Humidity: 76%   Direction: 90°E
Pressure: 29.82"   Gusts: NA
Location:  37.43°N, 90.17°W
Report Text: KFAM 220955Z AUTO 09006KT 10SM OVC026 05/01 A2982 RMK AO1
Loading
Personal Weather Stations






























Interactive Weather Map New forecast layout! Learn more

10-Day Weather Forecast

Advertisements
Track Severe Weather on mobile